createdAt,value
2022-10-05T03:30:27.547Z,94.04
2022-10-05T05:24:53.049Z,96.22
2022-10-05T05:47:20.130Z,98.86
2022-10-05T05:50:33.986Z,100.00
2022-10-05T05:53:46.971Z,100.00
2022-10-05T05:57:09.351Z,100.00
2022-10-05T06:00:56.222Z,100.00
2022-10-05T06:04:50.478Z,99.80
2022-10-05T06:07:49.239Z,99.40
2022-10-05T06:11:29.399Z,98.90
2022-10-05T06:14:52.478Z,98.73
2022-10-05T06:18:21.553Z,98.29
2022-10-05T06:22:27.998Z,98.03
2022-10-05T06:25:41.215Z,97.45
2022-10-05T06:29:11.061Z,97.45
2022-10-05T06:32:41.041Z,96.70
2022-10-05T06:36:26.755Z,96.06
2022-10-05T06:45:06.379Z,95.25
2022-10-05T07:30:32.169Z,91.28
2022-10-05T07:33:56.509Z,91.33
2022-10-05T07:37:31.567Z,91.63
2022-10-05T07:40:48.014Z,91.03
2022-10-05T07:44:02.810Z,90.50
2022-10-05T07:47:30.950Z,90.40
2022-10-05T07:50:49.371Z,90.24
2022-10-05T07:54:05.418Z,90.18
2022-10-05T07:57:22.698Z,89.50
2022-10-05T08:00:47.330Z,89.03
2022-10-05T08:03:57.009Z,88.87
2022-10-05T08:07:06.845Z,88.50
2022-10-05T08:10:40.169Z,88.56
2022-10-05T08:14:00.005Z,88.35
2022-10-05T08:17:16.387Z,88.35
2022-10-05T08:20:36.992Z,88.18
2022-10-05T08:23:46.124Z,87.61
2022-10-05T08:26:53.848Z,87.75
2022-10-05T08:30:01.358Z,87.09
2022-10-05T08:33:10.685Z,86.02
2022-10-05T08:36:14.513Z,85.88
2022-10-05T08:39:20.281Z,85.70
2022-10-05T08:42:48.313Z,85.27
2022-10-05T08:46:14.787Z,84.25
2022-10-05T08:49:45.406Z,84.42
2022-10-05T08:53:05.656Z,84.02
2022-10-05T08:56:10.273Z,83.29
2022-10-05T08:59:48.245Z,82.46
2022-10-05T09:03:08.749Z,81.52
2022-10-05T09:06:33.516Z,79.70
2022-10-05T09:10:01.900Z,80.37
2022-10-05T09:13:38.644Z,80.87
2022-10-05T09:16:58.529Z,79.72
2022-10-05T09:20:17.023Z,79.93
2022-10-05T09:23:44.729Z,79.86
2022-10-05T09:27:11.144Z,80.22
2022-10-05T09:30:27.490Z,80.69
2022-10-05T09:33:53.768Z,81.90
2022-10-05T09:37:22.298Z,82.21
2022-10-05T09:40:53.044Z,82.12
2022-10-05T09:44:22.191Z,80.92
2022-10-05T09:47:36.034Z,81.32
2022-10-05T09:50:59.333Z,81.02
2022-10-05T09:54:03.914Z,82.35
2022-10-05T09:57:43.741Z,81.67
2022-10-05T10:01:33.247Z,79.83
2022-10-05T10:05:01.692Z,81.45
2022-10-05T10:08:21.701Z,81.46
2022-10-05T10:11:56.029Z,81.74
2022-10-05T10:15:41.897Z,81.30
2022-10-05T10:19:28.431Z,79.69
2022-10-05T10:22:45.313Z,81.34
2022-10-05T10:26:08.548Z,81.21
2022-10-05T10:29:36.158Z,81.32
2022-10-05T10:33:15.627Z,81.05
2022-10-05T10:36:19.807Z,81.53
2022-10-05T10:39:39.719Z,79.32
2022-10-05T10:43:05.817Z,78.83
2022-10-05T10:46:32.217Z,79.68
2022-10-05T10:50:04.961Z,79.55
2022-10-05T10:53:43.423Z,78.59
2022-10-05T10:57:08.686Z,77.91
2022-10-05T11:00:16.351Z,77.21
2022-10-05T11:04:09.006Z,77.45
2022-10-05T11:07:27.530Z,77.26
2022-10-05T11:10:58.871Z,77.08
2022-10-05T11:14:24.920Z,77.88
2022-10-05T11:18:04.768Z,76.59
2022-10-05T11:21:23.762Z,77.23
2022-10-05T11:24:46.651Z,76.17
2022-10-05T11:28:00.563Z,76.98
2022-10-05T11:31:27.148Z,76.44
2022-10-05T11:34:38.117Z,76.12
2022-10-05T11:38:01.332Z,75.16
2022-10-05T11:41:20.158Z,74.44
2022-10-05T11:44:24.833Z,74.77
2022-10-05T11:47:45.357Z,76.13
2022-10-05T11:51:14.220Z,72.60
2022-10-05T11:54:26.971Z,73.86
2022-10-05T11:57:56.216Z,71.83
2022-10-05T12:01:15.600Z,71.92
2022-10-05T12:04:23.699Z,71.86
2022-10-05T12:07:54.598Z,72.26
2022-10-05T12:11:07.979Z,72.56
2022-10-05T12:14:41.254Z,72.29
2022-10-05T12:17:49.053Z,71.19
2022-10-05T12:21:19.292Z,72.66
2022-10-05T12:24:37.330Z,73.06
2022-10-05T12:27:44.060Z,72.77
2022-10-05T12:30:51.768Z,72.49
2022-10-05T12:34:07.727Z,71.78
2022-10-05T12:37:32.015Z,71.98
2022-10-05T12:40:39.612Z,72.49
2022-10-05T12:44:11.333Z,72.18
2022-10-05T12:47:19.323Z,71.87
2022-10-05T12:50:47.077Z,71.87
2022-10-05T12:53:56.682Z,72.02
2022-10-05T12:57:05.293Z,71.39
2022-10-05T13:00:20.310Z,71.10
2022-10-05T13:03:24.168Z,70.14
2022-10-05T13:06:45.932Z,69.08
2022-10-05T13:09:59.668Z,69.51
2022-10-05T13:13:18.464Z,69.17
2022-10-05T13:16:38.143Z,69.94
2022-10-05T13:19:45.858Z,68.63
2022-10-05T13:22:57.354Z,68.29
2022-10-05T13:26:07.877Z,69.37
2022-10-05T13:29:38.733Z,68.41
2022-10-05T13:33:04.308Z,68.96
2022-10-05T13:36:44.373Z,68.34
2022-10-05T13:39:55.286Z,69.02
2022-10-05T13:43:04.043Z,68.50
2022-10-05T13:46:18.487Z,67.73
2022-10-05T13:49:21.519Z,66.89
2022-10-05T13:52:34.095Z,66.62
2022-10-05T13:55:47.067Z,67.27
2022-10-05T13:58:51.864Z,67.58
2022-10-05T14:02:17.416Z,65.32
2022-10-05T14:05:25.305Z,65.80
2022-10-05T14:08:31.977Z,67.17
2022-10-05T14:11:35.697Z,67.61
2022-10-05T14:14:52.785Z,66.90
2022-10-05T14:17:54.878Z,68.26
2022-10-05T14:21:22.228Z,68.02
2022-10-05T14:24:46.630Z,67.39
2022-10-05T14:28:24.106Z,68.97
2022-10-05T14:31:36.047Z,69.53
2022-10-05T14:34:45.141Z,69.44
2022-10-05T14:37:50.485Z,69.51
2022-10-05T14:41:10.791Z,69.86
2022-10-05T14:44:13.048Z,70.09
2022-10-05T14:47:24.317Z,69.86
2022-10-05T14:50:31.787Z,70.68
2022-10-05T14:53:40.446Z,70.54
2022-10-05T14:57:25.313Z,70.30
2022-10-05T15:00:28.782Z,69.97
2022-10-05T15:03:40.928Z,70.31
2022-10-05T15:06:47.001Z,70.38
2022-10-05T15:10:01.527Z,71.34
2022-10-05T15:13:24.118Z,71.38
2022-10-05T15:16:39.088Z,72.08
2022-10-05T15:20:01.994Z,71.39
2022-10-05T15:23:16.719Z,71.25
2022-10-05T15:26:30.746Z,71.27
2022-10-05T15:29:52.883Z,71.13
2022-10-05T15:32:57.386Z,71.79
2022-10-05T15:36:00.571Z,72.20
2022-10-05T15:39:32.626Z,71.63
2022-10-05T15:42:41.526Z,72.09
2022-10-05T15:46:19.186Z,72.12
2022-10-05T15:49:29.523Z,72.57
2022-10-05T15:52:31.904Z,73.42
2022-10-05T15:55:42.453Z,73.34
2022-10-05T15:58:56.846Z,73.80
2022-10-05T16:02:04.423Z,74.34
2022-10-05T16:05:19.996Z,74.87
2022-10-05T16:08:53.999Z,75.00
2022-10-05T16:12:13.583Z,75.46
2022-10-05T16:15:26.271Z,75.46
2022-10-05T16:19:02.860Z,75.47
2022-10-05T16:22:16.874Z,75.85
2022-10-05T16:25:40.071Z,76.38
2022-10-05T16:28:53.752Z,76.47
2022-10-05T16:32:17.260Z,77.28
2022-10-05T16:35:37.674Z,77.48
2022-10-05T16:38:59.097Z,77.69
2022-10-05T16:42:21.161Z,78.42
2022-10-05T16:45:46.212Z,78.60
2022-10-05T16:49:12.679Z,79.16
2022-10-05T16:52:20.307Z,79.56
2022-10-05T16:55:31.981Z,80.24
2022-10-05T16:58:33.433Z,80.83
2022-10-05T17:02:03.059Z,80.68
2022-10-05T17:05:22.801Z,80.95
2022-10-05T17:08:58.536Z,80.67
2022-10-05T17:12:26.742Z,80.22
2022-10-05T17:16:04.162Z,80.70
2022-10-05T17:19:24.078Z,80.26
2022-10-05T17:22:31.989Z,80.36
2022-10-05T17:26:09.756Z,81.09
2022-10-05T17:29:16.519Z,80.40
2022-10-05T17:32:17.989Z,79.96
2022-10-05T17:36:12.783Z,80.26
2022-10-05T17:39:43.158Z,80.40
2022-10-05T17:42:47.158Z,80.56
2022-10-05T17:45:52.907Z,80.75
2022-10-05T17:48:54.427Z,81.22
2022-10-05T17:52:15.991Z,82.22
2022-10-05T17:55:29.941Z,82.14
2022-10-05T17:58:31.399Z,81.75
2022-10-05T19:57:32.261Z,76.97
2022-10-05T20:01:27.076Z,76.77
2022-10-05T20:04:44.850Z,76.92
2022-10-05T20:08:12.022Z,77.07
2022-10-05T20:16:38.386Z,77.02
2022-10-05T21:00:19.729Z,77.47
2022-10-05T21:19:18.915Z,78.20
2022-10-05T21:22:07.622Z,78.08
2022-10-05T21:27:24.231Z,78.12
2022-10-05T21:31:14.473Z,77.80
2022-10-05T21:34:23.351Z,77.73
2022-10-05T21:42:41.533Z,78.17
2022-10-05T21:53:08.791Z,78.34
2022-10-05T21:56:32.976Z,78.42
2022-10-05T21:59:53.329Z,78.09
2022-10-05T22:02:55.138Z,78.52
2022-10-05T22:09:12.524Z,78.69
2022-10-05T22:12:14.442Z,78.56
2022-10-05T22:37:05.229Z,77.38
2022-10-05T22:44:21.247Z,77.06
2022-10-05T22:47:29.802Z,77.02
2022-10-05T22:58:21.441Z,77.20
2022-10-05T23:01:39.664Z,77.23
2022-10-05T23:08:39.235Z,77.78
2022-10-05T23:12:12.509Z,77.74
2022-10-05T23:15:21.618Z,77.58
2022-10-05T23:18:48.208Z,77.49
2022-10-05T23:22:10.682Z,77.35
2022-10-05T23:26:13.406Z,77.69
2022-10-05T23:32:44.327Z,77.48
2022-10-05T23:39:52.091Z,77.70
